createdAt,value
2023-03-21T00:00:41.360Z,68.40
2023-03-21T00:03:09.170Z,68.40
2023-03-21T00:05:40.316Z,68.40
2023-03-21T00:08:07.470Z,68.40
2023-03-21T00:10:40.495Z,68.50
2023-03-21T00:13:13.413Z,68.50
2023-03-21T00:16:01.984Z,68.50
2023-03-21T00:18:31.892Z,68.60
2023-03-21T00:21:29.336Z,68.60
2023-03-21T00:23:46.965Z,68.60
2023-03-21T00:26:14.801Z,68.60
2023-03-21T00:28:42.589Z,68.30
2023-03-21T00:31:09.856Z,68.10
2023-03-21T00:33:39.068Z,68.30
2023-03-21T00:36:06.944Z,68.40
2023-03-21T00:38:34.749Z,68.10
2023-03-21T00:41:10.992Z,68.20
2023-03-21T00:43:41.934Z,68.40
2023-03-21T00:46:08.878Z,68.40
2023-03-21T00:48:36.088Z,68.30
2023-03-21T00:51:03.640Z,68.40
2023-03-21T00:53:31.388Z,68.20
2023-03-21T00:55:58.694Z,68.10
2023-03-21T00:58:26.372Z,68.20
2023-03-21T01:00:53.390Z,68.30
2023-03-21T01:03:25.360Z,67.90
2023-03-21T01:06:05.242Z,67.80
2023-03-21T01:08:48.500Z,67.80
2023-03-21T01:11:19.346Z,67.60
2023-03-21T01:13:53.699Z,67.60
2023-03-21T01:16:25.110Z,67.80
2023-03-21T01:18:52.202Z,67.90
2023-03-21T01:21:19.181Z,68.10
2023-03-21T01:23:46.423Z,68.30
2023-03-21T01:26:13.992Z,68.50
2023-03-21T01:28:42.272Z,68.70
2023-03-21T01:31:09.891Z,68.60
2023-03-21T01:33:36.903Z,68.70
2023-03-21T01:36:12.856Z,68.60
2023-03-21T01:38:41.164Z,68.50
2023-03-21T01:41:18.791Z,68.50
2023-03-21T01:43:46.343Z,68.60
2023-03-21T01:46:45.411Z,68.60
2023-03-21T01:49:18.736Z,68.70
2023-03-21T01:51:47.747Z,68.90
2023-03-21T01:54:17.401Z,68.90
2023-03-21T01:56:47.307Z,68.90
2023-03-21T01:59:17.624Z,68.90
2023-03-21T02:01:45.306Z,68.90
2023-03-21T02:04:12.312Z,69.00
2023-03-21T02:06:59.510Z,69.00
2023-03-21T02:09:29.137Z,69.00
2023-03-21T02:11:56.097Z,68.80
2023-03-21T02:14:29.266Z,68.70
2023-03-21T02:16:59.603Z,68.80
2023-03-21T02:19:52.989Z,68.80
2023-03-21T02:22:43.809Z,68.80
2023-03-21T02:25:31.399Z,68.90
2023-03-21T02:28:15.482Z,69.00
2023-03-21T02:31:05.841Z,69.30
2023-03-21T02:33:32.668Z,69.40
2023-03-21T02:36:14.345Z,69.50
2023-03-21T02:39:01.046Z,69.30
2023-03-21T02:41:39.593Z,69.30
2023-03-21T02:44:26.238Z,69.30
2023-03-21T02:47:05.495Z,69.50
2023-03-21T02:49:43.346Z,69.60
2023-03-21T02:52:18.685Z,69.60
2023-03-21T02:54:49.186Z,69.50
2023-03-21T02:57:18.647Z,69.60
2023-03-21T02:59:54.313Z,69.50
2023-03-21T03:02:26.701Z,69.40
2023-03-21T03:04:53.711Z,69.40
2023-03-21T03:07:29.858Z,69.40
2023-03-21T03:10:19.541Z,69.40
2023-03-21T03:13:03.553Z,69.40
2023-03-21T03:15:31.374Z,69.50
2023-03-21T03:18:16.763Z,69.50
2023-03-21T03:20:50.577Z,69.40
2023-03-21T03:23:26.592Z,69.40
2023-03-21T03:26:05.679Z,69.10
2023-03-21T03:28:35.632Z,69.00
2023-03-21T03:31:09.644Z,69.10
2023-03-21T03:33:39.267Z,69.10
2023-03-21T03:36:10.903Z,68.70
2023-03-21T03:38:39.301Z,68.70
2023-03-21T03:41:11.532Z,68.90
2023-03-21T03:43:51.080Z,68.70
2023-03-21T03:46:27.245Z,68.30
2023-03-21T03:49:09.523Z,68.10
2023-03-21T03:51:42.888Z,68.30
2023-03-21T03:54:14.974Z,68.50
2023-03-21T03:56:42.280Z,68.50
2023-03-21T03:59:09.285Z,68.70
2023-03-21T04:01:37.003Z,69.00
2023-03-21T04:04:13.019Z,69.20
2023-03-21T04:06:41.579Z,69.30
2023-03-21T04:09:19.117Z,69.40
2023-03-21T04:11:49.415Z,69.50
2023-03-21T04:14:16.607Z,69.70
2023-03-21T04:16:43.473Z,69.60
2023-03-21T04:19:10.389Z,69.50
2023-03-21T04:21:37.327Z,69.30
2023-03-21T04:24:04.664Z,68.90
2023-03-21T04:26:33.843Z,68.60
2023-03-21T04:29:01.152Z,68.60
2023-03-21T04:31:31.173Z,68.60
2023-03-21T04:33:59.691Z,68.50
2023-03-21T04:36:41.550Z,68.30
2023-03-21T04:39:12.698Z,68.40
2023-03-21T04:41:43.798Z,68.70
2023-03-21T04:44:11.913Z,68.50
2023-03-21T04:46:39.165Z,68.70
2023-03-21T04:49:07.194Z,68.80
2023-03-21T04:51:34.807Z,68.90
2023-03-21T04:54:01.885Z,68.80
2023-03-21T04:56:33.026Z,68.60
2023-03-21T04:59:00.989Z,68.30
2023-03-21T05:01:31.027Z,68.00
2023-03-21T05:03:58.759Z,68.10
2023-03-21T05:06:26.677Z,68.10
2023-03-21T05:08:54.594Z,68.20
2023-03-21T05:11:21.547Z,68.10
2023-03-21T05:13:48.481Z,68.00
2023-03-21T05:16:15.594Z,67.80
2023-03-21T05:18:42.521Z,67.70
2023-03-21T05:21:10.845Z,67.70
2023-03-21T05:23:40.545Z,67.60
2023-03-21T05:26:08.505Z,67.60
2023-03-21T05:28:36.997Z,67.80
2023-03-21T05:31:04.552Z,68.20
2023-03-21T05:33:31.571Z,68.30
2023-03-21T05:35:58.682Z,68.20
2023-03-21T05:38:26.010Z,68.30
2023-03-21T05:40:54.431Z,68.40
2023-03-21T05:43:21.445Z,68.60
2023-03-21T05:45:48.525Z,68.60
2023-03-21T05:48:15.755Z,68.70
2023-03-21T05:50:42.855Z,68.80
2023-03-21T05:53:09.767Z,69.10
2023-03-21T05:55:37.090Z,69.30
2023-03-21T05:58:04.209Z,69.40
2023-03-21T06:00:31.069Z,69.40
2023-03-21T06:02:58.034Z,69.30
2023-03-21T06:05:25.112Z,69.40
2023-03-21T06:07:51.965Z,69.40
2023-03-21T06:10:18.936Z,69.50
2023-03-21T06:12:45.838Z,69.80
2023-03-21T06:15:12.771Z,69.80
2023-03-21T06:17:39.864Z,70.00
2023-03-21T06:20:07.218Z,70.10
2023-03-21T06:22:34.990Z,70.00
2023-03-21T06:25:02.082Z,70.00
2023-03-21T06:27:29.030Z,70.10
2023-03-21T06:29:56.337Z,70.20
2023-03-21T06:32:23.234Z,70.20
2023-03-21T06:34:50.442Z,70.30
2023-03-21T06:37:17.615Z,70.30
2023-03-21T06:39:44.491Z,70.30
2023-03-21T06:42:12.361Z,70.30
2023-03-21T06:44:39.279Z,70.40
2023-03-21T06:47:06.268Z,70.50
2023-03-21T06:49:33.485Z,70.40
2023-03-21T06:52:00.386Z,70.30
2023-03-21T06:54:27.286Z,70.20
2023-03-21T06:56:55.078Z,70.10
2023-03-21T06:59:22.488Z,70.20
2023-03-21T07:01:49.354Z,70.30
2023-03-21T07:04:16.368Z,70.30
2023-03-21T07:06:43.408Z,70.30
2023-03-21T07:09:10.642Z,70.30
2023-03-21T07:11:37.672Z,70.30
2023-03-21T07:14:04.960Z,70.20
2023-03-21T07:16:32.449Z,70.20
2023-03-21T07:18:59.389Z,70.10
2023-03-21T07:21:26.354Z,70.10
2023-03-21T07:23:53.788Z,70.10
2023-03-21T07:26:20.882Z,70.20
2023-03-21T07:28:47.840Z,70.00
2023-03-21T07:31:15.938Z,70.10
2023-03-21T07:33:42.981Z,70.10
2023-03-21T07:36:12.704Z,70.20
2023-03-21T07:38:39.857Z,70.10
2023-03-21T07:41:06.759Z,70.00
2023-03-21T07:43:34.084Z,69.90
2023-03-21T07:46:01.802Z,69.60
2023-03-21T07:48:29.676Z,69.50
2023-03-21T07:50:56.730Z,69.40
2023-03-21T07:53:23.611Z,69.20
2023-03-21T07:55:55.767Z,69.10
2023-03-21T07:58:23.412Z,69.00
2023-03-21T08:00:50.449Z,68.80
2023-03-21T08:03:18.757Z,68.50
2023-03-21T08:05:46.185Z,68.40
2023-03-21T08:08:13.312Z,68.30
2023-03-21T08:10:42.112Z,68.30
2023-03-21T08:13:09.012Z,68.10
2023-03-21T08:15:36.102Z,67.80
2023-03-21T08:18:03.197Z,67.50
2023-03-21T08:20:30.072Z,67.30
2023-03-21T08:22:57.058Z,67.20
2023-03-21T08:25:24.005Z,67.20
2023-03-21T08:27:51.334Z,67.10
2023-03-21T08:30:19.559Z,66.70
2023-03-21T08:32:46.622Z,66.60
2023-03-21T08:35:16.138Z,66.40
2023-03-21T08:37:43.873Z,66.20
2023-03-21T08:40:13.423Z,66.00
2023-03-21T08:42:41.081Z,66.00
2023-03-21T08:45:08.455Z,65.60
2023-03-21T08:47:35.543Z,65.20
2023-03-21T08:50:02.383Z,64.80
2023-03-21T08:52:29.354Z,64.70
2023-03-21T08:54:56.302Z,64.40
2023-03-21T08:57:23.221Z,64.30
2023-03-21T08:59:50.489Z,63.80
2023-03-21T09:02:17.651Z,63.50
2023-03-21T09:04:45.110Z,63.20
2023-03-21T09:07:18.276Z,62.90
2023-03-21T09:09:47.793Z,62.30
2023-03-21T09:12:17.892Z,61.70
2023-03-21T09:14:44.837Z,61.40
2023-03-21T09:17:11.825Z,61.20
2023-03-21T09:19:39.018Z,60.80
2023-03-21T09:22:06.204Z,60.50
2023-03-21T09:24:33.163Z,59.90
2023-03-21T09:27:00.822Z,59.40
2023-03-21T09:29:27.776Z,59.10
2023-03-21T09:31:54.782Z,57.70
2023-03-21T09:34:22.024Z,57.20
2023-03-21T09:36:49.076Z,56.20
2023-03-21T09:39:17.068Z,55.80
2023-03-21T09:41:57.102Z,55.60
2023-03-21T09:44:43.983Z,55.10
2023-03-21T09:47:14.465Z,54.40
2023-03-21T09:49:43.919Z,54.30
2023-03-21T09:52:20.686Z,53.90
2023-03-21T09:54:47.827Z,53.50
2023-03-21T09:57:21.836Z,53.30
2023-03-21T09:59:50.753Z,53.20
2023-03-21T10:02:38.883Z,52.90
2023-03-21T10:05:13.661Z,52.60
2023-03-21T10:07:42.569Z,52.40
2023-03-21T10:10:18.745Z,52.40
2023-03-21T10:12:46.696Z,52.30
2023-03-21T10:15:18.554Z,51.90
2023-03-21T10:17:49.151Z,52.00
2023-03-21T10:20:19.131Z,51.90
2023-03-21T10:22:47.012Z,52.00
2023-03-21T10:25:16.673Z,51.60
2023-03-21T10:27:44.211Z,51.40
2023-03-21T10:30:18.745Z,51.20
2023-03-21T10:32:46.237Z,51.10
2023-03-21T10:35:14.430Z,50.50
2023-03-21T10:37:41.592Z,50.50
2023-03-21T10:40:15.631Z,49.90
2023-03-21T10:42:43.958Z,49.50
2023-03-21T10:45:15.996Z,49.20
2023-03-21T10:47:43.446Z,49.20
2023-03-21T10:50:16.287Z,49.10
2023-03-21T10:52:47.086Z,49.00
2023-03-21T10:55:18.782Z,48.70
2023-03-21T10:57:46.904Z,48.20
2023-03-21T11:00:25.943Z,48.00
2023-03-21T11:02:54.085Z,47.50
2023-03-21T11:05:41.048Z,47.20
2023-03-21T11:08:12.783Z,46.90
2023-03-21T11:10:48.862Z,47.00
2023-03-21T11:13:23.804Z,46.50
2023-03-21T11:15:54.830Z,45.90
2023-03-21T11:18:25.837Z,45.10
2023-03-21T11:20:57.356Z,44.80
2023-03-21T11:23:28.606Z,44.50
2023-03-21T11:25:55.758Z,44.60
2023-03-21T11:28:24.408Z,44.70
2023-03-21T11:30:55.902Z,44.50
2023-03-21T11:33:27.224Z,44.40
2023-03-21T11:36:01.299Z,44.40
2023-03-21T11:38:33.339Z,44.40
2023-03-21T11:41:01.675Z,44.20
2023-03-21T11:43:32.786Z,44.30
2023-03-21T11:46:03.265Z,44.40
2023-03-21T11:48:30.561Z,44.20
2023-03-21T11:51:05.628Z,44.20
2023-03-21T11:53:38.470Z,43.90
2023-03-21T11:56:23.736Z,43.50
2023-03-21T11:58:53.712Z,43.70
2023-03-21T12:01:29.281Z,43.80
2023-03-21T12:03:59.300Z,43.90
2023-03-21T12:06:37.840Z,43.40
2023-03-21T12:09:04.841Z,43.40
2023-03-21T12:11:39.928Z,43.70
2023-03-21T12:14:09.879Z,43.50
2023-03-21T12:16:41.642Z,43.10
2023-03-21T12:19:11.635Z,42.70
2023-03-21T12:21:46.645Z,42.70
2023-03-21T12:24:13.581Z,42.50
2023-03-21T12:26:44.982Z,42.30
2023-03-21T12:29:17.732Z,42.20
2023-03-21T12:32:10.788Z,42.00
2023-03-21T12:34:56.648Z,41.60
2023-03-21T12:37:23.540Z,41.00
2023-03-21T12:39:50.775Z,40.80
2023-03-21T12:42:28.501Z,40.60
2023-03-21T12:45:18.612Z,40.70
2023-03-21T12:47:49.019Z,40.70
2023-03-21T12:50:20.235Z,40.60
2023-03-21T12:52:58.594Z,40.60
2023-03-21T12:55:28.000Z,40.50
2023-03-21T12:58:04.485Z,40.50
2023-03-21T13:00:49.853Z,40.40
2023-03-21T13:03:40.392Z,40.50
2023-03-21T13:06:09.647Z,40.50
2023-03-21T13:08:42.282Z,40.30
2023-03-21T13:11:11.882Z,40.30
2023-03-21T13:14:08.603Z,40.30
2023-03-21T13:16:35.823Z,40.40
2023-03-21T13:19:06.533Z,40.50
2023-03-21T13:21:42.232Z,40.70
2023-03-21T13:24:18.051Z,40.70
2023-03-21T13:26:55.546Z,40.50
2023-03-21T13:29:24.396Z,40.70
2023-03-21T13:31:53.468Z,41.00
2023-03-21T13:34:22.859Z,41.20
2023-03-21T13:36:51.267Z,41.40
2023-03-21T13:39:26.590Z,41.50
2023-03-21T13:41:54.826Z,41.80
2023-03-21T13:44:22.253Z,41.80
2023-03-21T13:46:55.193Z,41.50
2023-03-21T13:49:29.664Z,41.50
2023-03-21T13:51:58.704Z,41.80
2023-03-21T13:54:30.684Z,41.90
2023-03-21T13:57:01.118Z,42.20
2023-03-21T13:59:37.716Z,42.40
2023-03-21T14:02:24.638Z,42.80
2023-03-21T14:05:05.592Z,43.00
2023-03-21T14:07:34.525Z,42.90
2023-03-21T14:10:05.155Z,43.00
2023-03-21T14:12:42.172Z,43.10
2023-03-21T14:15:17.432Z,43.30
2023-03-21T14:18:10.771Z,43.40
2023-03-21T14:20:55.554Z,43.50
2023-03-21T14:23:22.926Z,43.70
2023-03-21T14:25:50.393Z,43.70
2023-03-21T14:28:19.084Z,43.90
2023-03-21T14:30:49.984Z,43.90
2023-03-21T14:33:26.416Z,44.00
2023-03-21T14:35:56.091Z,44.20
2023-03-21T14:38:24.584Z,44.20
2023-03-21T14:40:52.705Z,44.20
2023-03-21T14:43:20.454Z,44.40
2023-03-21T14:45:48.162Z,44.50
2023-03-21T14:48:16.795Z,44.50
2023-03-21T14:50:46.710Z,44.50
2023-03-21T14:53:21.582Z,44.60
2023-03-21T14:55:51.545Z,44.80
2023-03-21T14:58:19.788Z,44.90
2023-03-21T15:00:54.870Z,45.00
2023-03-21T15:03:22.959Z,44.90
2023-03-21T15:05:52.288Z,45.00
2023-03-21T15:08:20.410Z,45.10
2023-03-21T15:11:07.236Z,45.30
2023-03-21T15:13:44.401Z,45.40
2023-03-21T15:16:11.572Z,45.40
2023-03-21T15:18:40.227Z,45.50
2023-03-21T15:21:22.360Z,45.60
2023-03-21T15:23:52.815Z,45.80
2023-03-21T15:26:21.595Z,46.00
2023-03-21T15:28:49.980Z,45.90
2023-03-21T15:31:16.875Z,46.00
2023-03-21T15:33:46.019Z,46.00
2023-03-21T15:36:12.961Z,46.10
2023-03-21T15:38:41.181Z,46.20
2023-03-21T15:41:14.739Z,46.40
2023-03-21T15:43:42.375Z,46.60
2023-03-21T15:46:16.507Z,46.80
2023-03-21T15:48:43.780Z,46.90
2023-03-21T15:51:23.892Z,47.00
2023-03-21T15:53:53.398Z,47.00
2023-03-21T15:56:22.025Z,47.10
2023-03-21T15:58:52.017Z,47.10
2023-03-21T16:01:20.615Z,47.20
2023-03-21T16:03:48.910Z,47.30
2023-03-21T16:06:22.168Z,47.20
2023-03-21T16:08:50.364Z,47.30
2023-03-21T16:11:23.164Z,47.40
2023-03-21T16:13:50.472Z,47.50
2023-03-21T16:16:19.523Z,47.60
2023-03-21T16:18:46.517Z,47.70
2023-03-21T16:21:14.824Z,47.90
2023-03-21T16:23:42.019Z,48.10
2023-03-21T16:26:13.327Z,48.30
2023-03-21T16:28:40.211Z,48.60
2023-03-21T16:31:10.052Z,48.70
2023-03-21T16:33:37.035Z,48.80
2023-03-21T16:36:07.745Z,48.90
2023-03-21T16:38:34.627Z,48.90
2023-03-21T16:41:04.430Z,49.00
2023-03-21T16:43:31.353Z,49.00
2023-03-21T16:45:58.356Z,49.10
2023-03-21T16:48:25.359Z,49.20
2023-03-21T16:50:52.364Z,49.20
2023-03-21T16:53:19.338Z,49.30
2023-03-21T16:55:46.397Z,49.40
2023-03-21T16:58:15.693Z,49.60
2023-03-21T17:00:43.603Z,49.80
2023-03-21T17:03:21.654Z,50.10
2023-03-21T17:05:48.642Z,50.50
2023-03-21T17:08:17.141Z,50.80
2023-03-21T17:10:44.129Z,51.00
2023-03-21T17:13:11.098Z,51.30
2023-03-21T17:15:38.890Z,51.40
2023-03-21T17:18:06.022Z,51.40
2023-03-21T17:20:34.448Z,51.40
2023-03-21T17:23:01.331Z,51.70
2023-03-21T17:25:28.553Z,52.00
2023-03-21T17:27:56.383Z,52.20
2023-03-21T17:30:23.310Z,52.20
2023-03-21T17:32:51.190Z,52.20
2023-03-21T17:35:18.504Z,52.40
2023-03-21T17:37:50.573Z,52.60
2023-03-21T17:40:24.711Z,52.60
2023-03-21T17:42:52.089Z,52.90
2023-03-21T17:45:19.125Z,53.20
2023-03-21T17:47:46.546Z,53.40
2023-03-21T17:50:23.728Z,53.40
2023-03-21T17:52:51.385Z,53.40
2023-03-21T17:55:21.345Z,53.40
2023-03-21T17:57:48.812Z,53.40
2023-03-21T18:00:21.387Z,53.40
2023-03-21T18:02:48.692Z,53.50
2023-03-21T18:05:16.086Z,53.50
2023-03-21T18:08:08.974Z,53.70
2023-03-21T18:10:30.652Z,53.70
2023-03-21T18:12:58.425Z,53.80
2023-03-21T18:15:29.686Z,53.90
2023-03-21T18:17:58.036Z,54.00
2023-03-21T18:20:44.681Z,53.90
2023-03-21T18:23:14.487Z,54.10
2023-03-21T18:25:42.025Z,54.10
2023-03-21T18:28:11.988Z,54.10
2023-03-21T18:30:56.917Z,54.30
2023-03-21T18:33:27.588Z,54.30
2023-03-21T18:35:59.152Z,54.50
2023-03-21T18:38:27.625Z,54.80
2023-03-21T18:40:54.758Z,54.80
2023-03-21T18:46:09.296Z,55.10
2023-03-21T18:48:36.348Z,55.10
2023-03-21T18:51:03.640Z,55.40
2023-03-21T18:53:30.567Z,55.60
2023-03-21T18:55:57.613Z,55.80
2023-03-21T18:58:25.318Z,55.80
2023-03-21T19:00:53.966Z,56.10
2023-03-21T19:03:34.259Z,56.30
2023-03-21T19:06:04.183Z,56.50
2023-03-21T19:08:31.393Z,56.60
2023-03-21T19:11:00.079Z,56.60
2023-03-21T19:13:28.526Z,56.70
2023-03-21T19:15:56.224Z,56.70
2023-03-21T19:18:41.529Z,56.90
2023-03-21T19:21:10.623Z,56.90
2023-03-21T19:24:07.840Z,56.90
2023-03-21T19:26:24.882Z,57.10
2023-03-21T19:28:52.090Z,57.30
2023-03-21T19:31:20.542Z,57.40
2023-03-21T19:33:48.062Z,57.60
2023-03-21T19:36:21.954Z,57.80
2023-03-21T19:38:49.588Z,57.90
2023-03-21T19:41:16.699Z,57.90
2023-03-21T19:43:53.762Z,58.00
2023-03-21T19:46:24.961Z,58.00
2023-03-21T19:48:56.410Z,58.10
2023-03-21T19:51:30.197Z,58.10
2023-03-21T19:53:58.272Z,58.30
2023-03-21T19:56:27.379Z,58.40
2023-03-21T19:58:55.141Z,58.50
2023-03-21T20:01:22.556Z,58.60
2023-03-21T20:03:49.638Z,58.50
2023-03-21T20:06:19.328Z,58.50
2023-03-21T20:11:33.633Z,58.10
2023-03-21T20:14:05.829Z,58.10
2023-03-21T20:16:35.862Z,58.10
2023-03-21T20:19:04.012Z,58.50
2023-03-21T20:21:41.133Z,58.60
2023-03-21T20:24:13.046Z,58.60
2023-03-21T20:26:40.490Z,58.80
2023-03-21T20:29:51.832Z,58.90
2023-03-21T20:31:54.471Z,58.90
2023-03-21T20:34:21.941Z,58.90
2023-03-21T20:36:49.183Z,59.10
2023-03-21T20:39:16.066Z,59.50
2023-03-21T20:41:43.137Z,59.40
2023-03-21T20:46:57.494Z,59.30
2023-03-21T20:49:25.070Z,59.40
2023-03-21T20:54:39.327Z,59.80
2023-03-21T20:57:06.307Z,59.70
2023-03-21T20:59:33.813Z,59.90
2023-03-21T21:02:01.042Z,59.90
2023-03-21T21:04:49.818Z,59.90
2023-03-21T21:07:24.723Z,59.80
2023-03-21T21:09:51.743Z,59.70
2023-03-21T21:12:19.705Z,59.80
2023-03-21T21:14:48.051Z,59.90
2023-03-21T21:17:33.999Z,59.90
2023-03-21T21:20:12.216Z,59.90
2023-03-21T21:22:40.199Z,60.10
2023-03-21T21:25:08.158Z,60.20
2023-03-21T21:27:35.556Z,60.40
2023-03-21T21:30:03.164Z,60.80
2023-03-21T21:32:30.044Z,61.00
2023-03-21T21:34:57.612Z,61.20
2023-03-21T21:37:25.349Z,61.10
2023-03-21T21:39:52.642Z,61.10
2023-03-21T21:42:19.635Z,61.00
2023-03-21T21:44:47.485Z,61.20
2023-03-21T21:47:14.560Z,61.50
2023-03-21T21:49:41.768Z,61.40
2023-03-21T21:52:09.206Z,61.30
2023-03-21T21:54:36.360Z,61.60
2023-03-21T21:57:03.554Z,61.70
2023-03-21T21:59:30.562Z,61.70
2023-03-21T22:01:58.869Z,61.70
2023-03-21T22:04:27.999Z,61.50
2023-03-21T22:06:55.507Z,61.20
2023-03-21T22:09:23.181Z,61.10
2023-03-21T22:11:50.205Z,61.30
2023-03-21T22:14:17.162Z,61.50
2023-03-21T22:16:44.260Z,61.50
2023-03-21T22:19:11.351Z,61.50
2023-03-21T22:21:39.954Z,61.30
2023-03-21T22:24:07.069Z,61.30
2023-03-21T22:26:34.180Z,61.30
2023-03-21T22:29:01.724Z,61.30
2023-03-21T22:31:28.725Z,61.50
2023-03-21T22:33:56.347Z,61.60
2023-03-21T22:36:23.285Z,61.80
2023-03-21T22:38:50.156Z,62.10
2023-03-21T22:41:16.966Z,62.10
2023-03-21T22:43:43.918Z,62.20
2023-03-21T22:46:10.801Z,62.40
2023-03-21T22:48:38.285Z,62.60
2023-03-21T22:51:05.419Z,62.60
2023-03-21T22:53:32.352Z,62.60
2023-03-21T22:55:59.185Z,62.70
2023-03-21T22:58:26.287Z,62.60
2023-03-21T23:00:53.240Z,62.80
2023-03-21T23:03:20.231Z,63.00
2023-03-21T23:05:47.313Z,63.30
2023-03-21T23:08:14.292Z,63.20
2023-03-21T23:10:43.704Z,63.10
2023-03-21T23:13:11.030Z,63.00
2023-03-21T23:15:41.037Z,63.10
2023-03-21T23:18:08.107Z,63.40
2023-03-21T23:20:35.630Z,63.50
2023-03-21T23:23:03.067Z,63.30
2023-03-21T23:25:30.611Z,63.20
2023-03-21T23:27:57.685Z,63.10
2023-03-21T23:30:24.700Z,63.00
2023-03-21T23:32:51.905Z,63.00
2023-03-21T23:35:18.941Z,62.90
2023-03-21T23:37:52.312Z,62.70
2023-03-21T23:40:20.292Z,62.80
2023-03-21T23:42:47.203Z,62.90
2023-03-21T23:45:14.136Z,63.10
2023-03-21T23:47:41.110Z,63.20
2023-03-21T23:50:09.816Z,63.20
2023-03-21T23:52:37.348Z,63.10
2023-03-21T23:55:04.986Z,62.90
2023-03-21T23:57:32.068Z,62.90
2023-03-21T23:59:58.997Z,62.90
